Terminal Aerodrome Forecast
Issued by NWS

Home | Current Version | Previous Version | Text Only | Print | Product List | Glossary On
Versions: 1 2 3 4 5 6 7 8 9 10 11 12 13 14 15 16 17 18 19 20 21 22 23
000
FTUS41 KRLX 280900 AAA
TAFCKB
TAF AMD
KCKB 280905Z 2809/2906 25007KT P6SM OVC014
     FM281500 26011G16KT P6SM BKN025
     FM281800 26011G16KT P6SM VCTS BKN035CB
     FM281900 27010G16KT 5SM SHRA VCTS BKN025CB
     FM282200 29007KT P6SM BKN040
     FM290300 31004KT 5SM BR BKN060=

USA.gov is the U.S. government's official web portal to all federal, state and local government web resources and services.